createdAt,value
2019-05-25T00:00:17.237Z,99.90
2019-05-25T00:02:47.653Z,99.90
2019-05-25T00:05:17.917Z,99.90
2019-05-25T00:07:48.979Z,99.90
2019-05-25T00:10:18.833Z,99.90
2019-05-25T00:12:48.937Z,99.90
2019-05-25T00:15:20.072Z,99.90
2019-05-25T00:17:56.453Z,99.90
2019-05-25T00:20:26.455Z,99.90
2019-05-25T00:22:57.059Z,99.90
2019-05-25T00:25:27.405Z,99.90
2019-05-25T00:27:58.220Z,99.90
2019-05-25T00:30:28.827Z,99.90
2019-05-25T00:32:59.300Z,99.90
2019-05-25T00:35:29.890Z,99.90
2019-05-25T00:38:00.334Z,99.90
2019-05-25T00:40:30.702Z,99.90
2019-05-25T00:43:02.409Z,99.90
2019-05-25T00:45:32.654Z,99.90
2019-05-25T00:48:02.992Z,99.90
2019-05-25T00:50:33.038Z,99.90
2019-05-25T00:53:06.424Z,99.90
2019-05-25T00:55:38.515Z,99.90
2019-05-25T00:58:08.140Z,99.90
2019-05-25T01:00:39.355Z,99.90
2019-05-25T01:03:09.428Z,99.90
2019-05-25T01:05:40.048Z,99.90
2019-05-25T01:08:10.057Z,99.90
2019-05-25T01:10:40.204Z,99.90
2019-05-25T01:13:11.721Z,99.90
2019-05-25T01:15:42.234Z,99.90
2019-05-25T01:18:13.068Z,99.90
2019-05-25T01:20:44.071Z,99.90
2019-05-25T01:23:14.713Z,99.90
2019-05-25T01:25:45.350Z,99.90
2019-05-25T01:28:17.832Z,99.90
2019-05-25T01:30:48.003Z,99.90
2019-05-25T01:33:18.283Z,99.90
2019-05-25T01:35:48.677Z,99.90
2019-05-25T01:38:18.810Z,99.90
2019-05-25T01:40:49.100Z,99.90
2019-05-25T01:43:19.987Z,99.90
2019-05-25T01:45:50.349Z,99.90
2019-05-25T01:48:38.324Z,99.90
2019-05-25T01:51:08.518Z,99.90
2019-05-25T01:53:39.528Z,99.90
2019-05-25T01:56:09.656Z,99.90
2019-05-25T01:58:39.985Z,99.90
2019-05-25T02:01:10.254Z,99.90
2019-05-25T02:03:40.716Z,99.90
2019-05-25T02:06:11.240Z,99.90
2019-05-25T02:08:41.892Z,99.90
2019-05-25T02:11:12.455Z,99.90
2019-05-25T02:13:43.018Z,99.90
2019-05-25T02:16:11.739Z,99.90
2019-05-25T02:18:45.552Z,99.90
2019-05-25T02:21:13.750Z,99.90
2019-05-25T02:23:44.027Z,99.90
2019-05-25T02:26:14.388Z,99.90
2019-05-25T02:28:44.628Z,99.90
2019-05-25T02:31:15.013Z,99.90
2019-05-25T02:33:45.871Z,99.90
2019-05-25T02:36:20.541Z,99.90
2019-05-25T02:38:50.183Z,99.90
2019-05-25T02:41:20.559Z,99.90
2019-05-25T02:43:50.814Z,99.90
2019-05-25T02:46:21.584Z,99.90
2019-05-25T02:48:51.944Z,99.90
2019-05-25T02:51:22.125Z,99.90
2019-05-25T02:53:52.597Z,99.90
2019-05-25T02:56:23.558Z,99.90
2019-05-25T02:58:53.714Z,99.90
2019-05-25T03:01:23.874Z,99.90
2019-05-25T03:03:54.431Z,99.90
2019-05-25T03:06:27.631Z,99.90
2019-05-25T03:08:57.817Z,99.90
2019-05-25T03:11:29.002Z,99.90
2019-05-25T03:13:59.788Z,99.90
2019-05-25T03:16:29.936Z,99.90
2019-05-25T03:19:00.144Z,99.90
2019-05-25T03:21:30.337Z,99.90
2019-05-25T03:24:00.510Z,99.90
2019-05-25T03:26:31.178Z,99.90
2019-05-25T03:29:01.309Z,99.90
2019-05-25T03:31:31.765Z,99.90
2019-05-25T03:34:01.809Z,99.90
2019-05-25T03:36:32.353Z,99.90
2019-05-25T03:39:05.197Z,99.90
2019-05-25T03:41:35.650Z,99.90
2019-05-25T03:44:05.722Z,99.90
2019-05-25T03:46:36.044Z,99.90
2019-05-25T03:49:07.866Z,99.90
2019-05-25T03:51:38.170Z,99.90
2019-05-25T03:54:09.518Z,99.90
2019-05-25T03:56:39.951Z,99.90
2019-05-25T03:59:10.840Z,99.90
2019-05-25T04:01:42.001Z,99.90
2019-05-25T04:04:12.443Z,99.90
2019-05-25T04:06:44.794Z,99.90
2019-05-25T04:09:16.440Z,99.90
2019-05-25T04:11:50.733Z,99.90
2019-05-25T04:14:21.518Z,99.90
2019-05-25T04:16:52.127Z,99.90
2019-05-25T04:19:23.513Z,99.90
2019-05-25T04:21:54.527Z,99.90
2019-05-25T04:24:25.162Z,99.90
2019-05-25T04:26:55.265Z,99.90
2019-05-25T04:29:26.533Z,99.90
2019-05-25T04:31:55.613Z,99.90
2019-05-25T04:34:26.394Z,99.90
2019-05-25T04:36:56.571Z,99.90
2019-05-25T04:39:26.975Z,99.90
2019-05-25T04:41:57.835Z,99.90
2019-05-25T04:44:27.971Z,99.90
2019-05-25T04:46:58.382Z,99.90
2019-05-25T04:49:28.610Z,99.90
2019-05-25T04:51:59.922Z,99.90
2019-05-25T04:54:31.660Z,99.90
2019-05-25T04:57:01.902Z,99.90
2019-05-25T04:59:32.249Z,99.90
2019-05-25T05:02:03.206Z,99.90
2019-05-25T05:04:35.213Z,99.90
2019-05-25T05:07:06.837Z,99.90
2019-05-25T05:09:37.604Z,99.90
2019-05-25T05:12:10.293Z,99.90
2019-05-25T05:14:40.884Z,99.90
2019-05-25T05:17:11.523Z,99.90
2019-05-25T05:19:42.001Z,99.90
2019-05-25T05:22:12.153Z,99.90
2019-05-25T05:24:43.418Z,99.90
2019-05-25T05:27:14.215Z,99.90
2019-05-25T05:29:44.707Z,99.90
2019-05-25T05:32:26.640Z,99.90
2019-05-25T05:34:46.822Z,99.90
2019-05-25T05:37:18.142Z,99.90
2019-05-25T05:39:48.874Z,99.90
2019-05-25T05:42:20.609Z,99.90
2019-05-25T05:44:55.414Z,99.90
2019-05-25T05:47:26.519Z,99.90
2019-05-25T05:50:00.109Z,99.90
2019-05-25T05:52:37.529Z,99.90
2019-05-25T05:55:10.379Z,99.90
2019-05-25T05:57:40.936Z,99.90
2019-05-25T06:00:13.632Z,99.90
2019-05-25T06:02:44.206Z,99.90
2019-05-25T06:05:15.073Z,99.90
2019-05-25T06:07:46.186Z,99.90
2019-05-25T06:10:16.814Z,99.90
2019-05-25T06:12:47.274Z,99.90
2019-05-25T06:15:17.725Z,99.90
2019-05-25T06:17:48.204Z,99.90
2019-05-25T06:20:19.987Z,99.90
2019-05-25T06:22:52.562Z,99.90
2019-05-25T06:25:23.242Z,99.90
2019-05-25T06:27:54.427Z,99.90
2019-05-25T06:30:25.526Z,99.90
2019-05-25T06:32:56.919Z,99.90
2019-05-25T06:35:27.111Z,99.90
2019-05-25T06:37:57.640Z,99.90
2019-05-25T06:40:28.352Z,99.90
2019-05-25T06:42:58.796Z,99.90
2019-05-25T06:45:29.980Z,99.90
2019-05-25T06:48:00.304Z,99.90
2019-05-25T06:50:30.561Z,99.90
2019-05-25T06:53:00.997Z,99.90
2019-05-25T06:55:31.523Z,99.90
2019-05-25T06:58:01.941Z,99.90
2019-05-25T07:00:33.073Z,99.90
2019-05-25T07:03:03.654Z,99.90
2019-05-25T07:05:35.631Z,99.90
2019-05-25T07:08:07.965Z,99.90
2019-05-25T07:10:39.223Z,99.90
2019-05-25T07:13:09.489Z,99.90
2019-05-25T07:15:40.321Z,99.90
2019-05-25T07:18:10.173Z,99.90
2019-05-25T07:20:40.166Z,99.90
2019-05-25T07:23:10.987Z,99.90
2019-05-25T07:25:41.473Z,99.90
2019-05-25T07:28:11.614Z,99.90
2019-05-25T07:30:46.064Z,99.90
2019-05-25T07:33:15.175Z,99.90
2019-05-25T07:35:45.491Z,97.90
2019-05-25T07:38:16.037Z,96.60
2019-05-25T07:40:46.707Z,95.60
2019-05-25T07:43:17.555Z,96.00
2019-05-25T07:45:47.767Z,95.10
2019-05-25T07:48:18.084Z,94.10
2019-05-25T07:50:48.411Z,96.70
2019-05-25T07:53:17.319Z,99.90
2019-05-25T07:55:47.466Z,99.90
2019-05-25T07:58:18.726Z,99.90
2019-05-25T08:00:49.525Z,99.90
2019-05-25T08:03:19.820Z,99.70
2019-05-25T08:05:49.989Z,98.60
2019-05-25T08:08:20.044Z,99.90
2019-05-25T08:10:50.469Z,99.90
2019-05-25T08:13:20.801Z,99.90
2019-05-25T08:15:51.110Z,99.90
2019-05-25T08:18:20.838Z,99.90
2019-05-25T08:20:49.920Z,99.90
2019-05-25T08:23:18.748Z,99.90
2019-05-25T08:25:48.222Z,99.90
2019-05-25T08:28:31.753Z,99.90
2019-05-25T08:30:51.379Z,99.90
2019-05-25T08:33:21.484Z,99.90
2019-05-25T08:35:52.099Z,99.90
2019-05-25T08:38:22.332Z,99.90
2019-05-25T08:40:52.631Z,99.90
2019-05-25T08:43:22.758Z,99.90
2019-05-25T08:45:53.464Z,99.90
2019-05-25T08:49:32.306Z,99.90
2019-05-25T08:52:10.461Z,99.90
2019-05-25T08:54:41.109Z,99.90
2019-05-25T08:57:14.129Z,99.90
2019-05-25T08:59:44.130Z,99.90
2019-05-25T09:02:14.682Z,99.90
2019-05-25T09:04:45.547Z,99.90
2019-05-25T09:07:15.726Z,99.80
2019-05-25T09:09:45.962Z,99.90
2019-05-25T09:12:16.742Z,99.90
2019-05-25T09:14:47.330Z,99.90
2019-05-25T09:17:18.533Z,99.90
2019-05-25T09:19:49.155Z,99.30
2019-05-25T09:22:19.463Z,99.90
2019-05-25T09:24:50.279Z,97.90
2019-05-25T09:27:20.956Z,97.80
2019-05-25T09:29:51.344Z,96.90
2019-05-25T09:32:27.140Z,99.90
2019-05-25T09:34:57.605Z,99.90
2019-05-25T09:37:27.899Z,99.90
2019-05-25T09:39:58.190Z,99.90
2019-05-25T09:42:31.081Z,99.90
2019-05-25T09:45:01.341Z,99.90
2019-05-25T09:47:31.468Z,99.90
2019-05-25T09:50:02.282Z,99.90
2019-05-25T09:52:35.622Z,99.90
2019-05-25T09:55:06.025Z,98.60
2019-05-25T09:57:36.550Z,93.10
2019-05-25T10:00:09.062Z,94.50
2019-05-25T10:02:39.721Z,98.40
2019-05-25T10:05:10.839Z,99.90
2019-05-25T10:07:43.051Z,99.90
2019-05-25T10:10:13.705Z,99.90
2019-05-25T10:12:44.194Z,99.90
2019-05-25T10:15:15.594Z,99.90
2019-05-25T10:17:47.395Z,99.90
2019-05-25T10:20:18.587Z,99.90
2019-05-25T10:22:48.764Z,99.90
2019-05-25T10:25:19.015Z,99.90
2019-05-25T10:27:49.368Z,99.90
2019-05-25T10:30:21.564Z,99.90
2019-05-25T10:32:52.412Z,99.90
2019-05-25T10:35:22.557Z,99.90
2019-05-25T10:37:54.577Z,99.90
2019-05-25T10:40:24.891Z,99.90
2019-05-25T10:42:57.182Z,99.90
2019-05-25T10:45:26.945Z,99.90
2019-05-25T10:48:00.575Z,99.90
2019-05-25T10:50:32.019Z,99.90
2019-05-25T10:53:02.054Z,99.90
2019-05-25T10:55:37.030Z,99.90
2019-05-25T10:58:07.578Z,99.90
2019-05-25T11:00:37.895Z,99.90
2019-05-25T11:03:08.782Z,99.90
2019-05-25T11:05:39.155Z,99.90
2019-05-25T11:08:09.853Z,99.90
2019-05-25T11:10:40.244Z,99.90
2019-05-25T11:13:13.220Z,99.90
2019-05-25T11:15:43.868Z,99.90
2019-05-25T11:18:14.366Z,99.90
2019-05-25T11:20:44.565Z,99.90
2019-05-25T11:23:14.603Z,99.90
2019-05-25T11:25:46.295Z,99.90
2019-05-25T11:28:17.526Z,99.90
2019-05-25T11:30:48.856Z,99.90
2019-05-25T11:33:20.705Z,99.90
2019-05-25T11:35:51.660Z,99.90
2019-05-25T11:38:22.509Z,99.90
2019-05-25T11:40:52.933Z,99.90
2019-05-25T11:43:23.257Z,99.90
2019-05-25T11:45:54.315Z,99.90
2019-05-25T11:48:24.389Z,99.90
2019-05-25T11:50:54.721Z,99.90
2019-05-25T11:53:25.250Z,99.90
2019-05-25T11:55:55.930Z,99.90
2019-05-25T11:58:26.445Z,99.90
2019-05-25T12:00:57.247Z,99.90
2019-05-25T12:03:28.498Z,99.90
2019-05-25T12:05:59.304Z,99.90
2019-05-25T12:08:29.978Z,99.90
2019-05-25T12:11:00.916Z,99.90
2019-05-25T12:13:32.804Z,99.90
2019-05-25T12:16:03.123Z,99.90
2019-05-25T12:18:39.737Z,99.90
2019-05-25T12:21:10.369Z,99.90
2019-05-25T12:23:41.387Z,99.90
2019-05-25T12:26:13.933Z,99.90
2019-05-25T12:28:44.147Z,99.90
2019-05-25T12:31:15.115Z,99.90
2019-05-25T12:33:45.333Z,99.90
2019-05-25T12:36:16.295Z,99.90
2019-05-25T12:38:46.722Z,99.90
2019-05-25T12:41:17.136Z,99.90
2019-05-25T12:43:48.209Z,99.90
2019-05-25T12:46:19.159Z,99.90
2019-05-25T12:48:57.413Z,99.90
2019-05-25T12:51:28.143Z,99.90
2019-05-25T12:53:59.176Z,99.90
2019-05-25T12:56:30.320Z,99.90
2019-05-25T12:59:01.384Z,99.90
2019-05-25T13:01:31.965Z,99.90
2019-05-25T13:04:02.373Z,99.90
2019-05-25T13:06:33.958Z,99.90
2019-05-25T13:09:06.513Z,99.90
2019-05-25T13:11:37.214Z,99.90
2019-05-25T13:14:14.685Z,99.90
2019-05-25T13:17:52.754Z,99.90
2019-05-25T13:21:23.238Z,99.90
2019-05-25T13:23:54.716Z,99.90
2019-05-25T13:26:25.513Z,99.90
2019-05-25T13:28:55.962Z,99.90
2019-05-25T13:31:26.162Z,99.90
2019-05-25T13:33:56.117Z,99.90
2019-05-25T13:36:26.521Z,99.90
2019-05-25T13:38:57.624Z,99.90
2019-05-25T13:41:30.971Z,99.90
2019-05-25T13:44:03.220Z,99.90
2019-05-25T13:46:35.169Z,99.90
2019-05-25T13:49:05.678Z,99.90
2019-05-25T13:51:36.504Z,99.90
2019-05-25T13:54:08.174Z,99.90
2019-05-25T13:56:40.165Z,99.90
2019-05-25T13:59:10.242Z,99.90
2019-05-25T14:01:41.606Z,99.90
2019-05-25T14:04:12.020Z,99.90
2019-05-25T14:06:43.410Z,99.90
2019-05-25T14:09:15.971Z,99.90
2019-05-25T14:11:46.648Z,99.90
2019-05-25T14:14:17.311Z,99.90
2019-05-25T14:16:47.534Z,99.90
2019-05-25T14:19:18.867Z,99.90
2019-05-25T14:21:50.405Z,99.90
2019-05-25T14:24:21.394Z,99.90
2019-05-25T14:26:52.027Z,99.90
2019-05-25T14:29:26.031Z,99.90
2019-05-25T14:31:54.939Z,99.90
2019-05-25T14:34:25.201Z,99.90
2019-05-25T14:36:54.201Z,99.90
2019-05-25T14:39:23.781Z,99.90
2019-05-25T14:41:53.984Z,99.90
2019-05-25T14:44:24.591Z,99.90
2019-05-25T14:46:55.485Z,99.90
2019-05-25T14:49:25.822Z,99.90
2019-05-25T14:51:56.379Z,99.90
2019-05-25T14:54:26.504Z,99.90
2019-05-25T14:56:57.000Z,99.90
2019-05-25T14:59:27.020Z,99.90
2019-05-25T15:02:02.398Z,99.90
2019-05-25T15:04:29.529Z,99.90
2019-05-25T15:07:00.444Z,99.90
2019-05-25T15:09:33.305Z,99.90
2019-05-25T15:12:04.187Z,99.90
2019-05-25T15:14:34.337Z,99.90
2019-05-25T15:17:05.076Z,99.90
2019-05-25T15:19:35.989Z,99.90
2019-05-25T15:22:06.839Z,99.90
2019-05-25T15:24:37.189Z,99.90
2019-05-25T15:27:07.822Z,99.90
2019-05-25T15:29:39.745Z,99.90
2019-05-25T15:32:19.639Z,99.90
2019-05-25T15:34:42.798Z,99.90
2019-05-25T15:37:13.297Z,99.90
2019-05-25T15:39:44.708Z,99.90
2019-05-25T15:42:15.241Z,99.90
2019-05-25T15:44:46.192Z,99.90
2019-05-25T15:47:17.796Z,99.90
2019-05-25T15:49:48.269Z,99.90
2019-05-25T15:52:18.835Z,99.90
2019-05-25T15:54:49.343Z,99.90
2019-05-25T15:57:19.942Z,99.90
2019-05-25T15:59:50.199Z,99.90
2019-05-25T16:02:35.591Z,99.90
2019-05-25T16:04:53.259Z,99.90
2019-05-25T16:07:24.226Z,99.90
2019-05-25T16:09:55.100Z,99.90
2019-05-25T16:12:27.412Z,99.90
2019-05-25T16:14:58.405Z,99.90
2019-05-25T16:17:29.518Z,99.90
2019-05-25T16:20:00.450Z,99.90
2019-05-25T16:22:32.117Z,99.90
2019-05-25T16:25:04.477Z,99.90
2019-05-25T16:27:35.018Z,99.90
2019-05-25T16:30:08.903Z,99.90
2019-05-25T16:33:09.969Z,99.90
2019-05-25T16:35:16.532Z,99.90
2019-05-25T16:37:49.082Z,99.90
2019-05-25T16:40:20.323Z,99.90
2019-05-25T16:42:50.841Z,99.90
2019-05-25T16:45:21.357Z,99.90
2019-05-25T16:47:51.532Z,99.90
2019-05-25T16:50:22.000Z,99.90
2019-05-25T16:52:52.431Z,99.90
2019-05-25T16:55:23.236Z,99.90
2019-05-25T16:57:53.873Z,99.90
2019-05-25T17:00:28.388Z,99.90
2019-05-25T17:02:59.136Z,99.90
2019-05-25T17:05:29.549Z,99.90
2019-05-25T17:08:00.368Z,99.90
2019-05-25T17:10:31.143Z,99.90
2019-05-25T17:13:01.619Z,99.90
2019-05-25T17:15:34.549Z,99.90
2019-05-25T17:18:05.973Z,99.90
2019-05-25T17:20:36.265Z,99.90
2019-05-25T17:23:05.778Z,99.90
2019-05-25T17:25:35.434Z,99.90
2019-05-25T17:28:05.550Z,99.90
2019-05-25T17:30:45.748Z,99.90
2019-05-25T17:33:16.218Z,99.90
2019-05-25T17:35:46.642Z,99.90
2019-05-25T17:38:17.939Z,99.90
2019-05-25T17:40:48.151Z,99.90
2019-05-25T17:43:18.467Z,99.90
2019-05-25T17:45:49.140Z,99.90
2019-05-25T17:48:20.148Z,99.90
2019-05-25T17:50:50.876Z,99.90
2019-05-25T17:53:21.624Z,99.90
2019-05-25T17:55:52.139Z,99.90
2019-05-25T17:58:23.210Z,99.90
2019-05-25T18:00:54.293Z,99.90
2019-05-25T18:03:25.252Z,99.90
2019-05-25T18:05:56.210Z,99.90
2019-05-25T18:08:26.833Z,99.90
2019-05-25T18:10:56.541Z,99.90
2019-05-25T18:13:28.921Z,99.90
2019-05-25T18:15:57.646Z,99.90
2019-05-25T18:18:27.729Z,99.90
2019-05-25T18:20:56.791Z,99.90
2019-05-25T18:23:27.211Z,99.90
2019-05-25T18:25:58.740Z,99.90
2019-05-25T18:28:29.518Z,99.90
2019-05-25T18:31:00.641Z,99.90
2019-05-25T18:33:30.878Z,99.90
2019-05-25T18:36:01.036Z,99.90
2019-05-25T18:38:35.136Z,99.90
2019-05-25T18:41:04.205Z,99.90
2019-05-25T18:43:35.287Z,99.90
2019-05-25T18:46:07.284Z,99.90
2019-05-25T18:48:38.184Z,99.90
2019-05-25T18:51:09.331Z,99.90
2019-05-25T18:53:40.697Z,99.90
2019-05-25T18:56:10.958Z,99.90
2019-05-25T18:58:41.405Z,99.90
2019-05-25T19:01:11.793Z,99.90
2019-05-25T19:03:41.621Z,99.90
2019-05-25T19:06:10.686Z,99.90
2019-05-25T19:08:39.569Z,99.90
2019-05-25T19:11:08.447Z,99.90
2019-05-25T19:13:36.962Z,99.90
2019-05-25T19:16:05.870Z,99.90
2019-05-25T19:18:35.304Z,99.90
2019-05-25T19:21:04.823Z,99.90
2019-05-25T19:23:33.575Z,99.90
2019-05-25T19:26:01.925Z,99.90
2019-05-25T19:28:30.625Z,99.90
2019-05-25T19:31:00.555Z,99.90
2019-05-25T19:33:29.090Z,99.90
2019-05-25T19:35:57.859Z,99.90
2019-05-25T19:38:26.369Z,99.90
2019-05-25T19:40:55.092Z,99.90
2019-05-25T19:43:23.874Z,99.90
2019-05-25T19:45:52.522Z,99.90
2019-05-25T19:48:22.297Z,99.90
2019-05-25T19:50:51.573Z,99.90
2019-05-25T19:53:20.119Z,99.90
2019-05-25T19:55:48.861Z,99.90
2019-05-25T19:58:17.645Z,99.90
2019-05-25T20:00:46.639Z,99.90
2019-05-25T20:03:15.804Z,99.90
2019-05-25T20:05:44.609Z,99.90
2019-05-25T20:08:13.268Z,99.90
2019-05-25T20:10:42.189Z,99.90
2019-05-25T20:13:11.217Z,99.90
2019-05-25T20:15:40.054Z,99.90
2019-05-25T20:18:08.501Z,99.90
2019-05-25T20:20:37.184Z,99.90
2019-05-25T20:23:06.430Z,99.90
2019-05-25T20:25:36.236Z,99.90
2019-05-25T20:28:04.597Z,99.90
2019-05-25T20:30:33.416Z,99.90
2019-05-25T20:33:02.347Z,99.90
2019-05-25T20:35:33.348Z,99.90
2019-05-25T20:38:02.177Z,99.90
2019-05-25T20:40:49.935Z,99.90
2019-05-25T20:43:36.668Z,99.90
2019-05-25T20:46:23.768Z,99.90
2019-05-25T20:49:10.608Z,99.90
2019-05-25T20:51:58.070Z,99.90
2019-05-25T20:54:46.120Z,99.90
2019-05-25T20:57:34.436Z,99.90
2019-05-25T21:00:24.322Z,99.90
2019-05-25T21:03:11.612Z,99.90
2019-05-25T21:05:58.900Z,99.90
2019-05-25T21:08:45.638Z,99.90
2019-05-25T21:11:33.194Z,99.90
2019-05-25T21:14:01.671Z,99.90
2019-05-25T21:16:30.487Z,99.90
2019-05-25T21:19:02.736Z,99.90
2019-05-25T21:21:31.814Z,99.90
2019-05-25T21:24:01.805Z,99.90
2019-05-25T21:26:32.221Z,99.90
2019-05-25T21:29:02.522Z,99.90
2019-05-25T21:31:32.095Z,99.90
2019-05-25T21:34:00.939Z,99.90
2019-05-25T21:36:29.534Z,99.90
2019-05-25T21:38:58.079Z,99.90
2019-05-25T21:41:26.576Z,99.90
2019-05-25T21:43:57.389Z,99.90
2019-05-25T21:46:28.892Z,99.90
2019-05-25T21:48:59.246Z,99.90
2019-05-25T21:51:29.659Z,99.90
2019-05-25T21:53:59.940Z,99.90
2019-05-25T21:56:31.240Z,99.90
2019-05-25T21:59:01.634Z,99.90
2019-05-25T22:01:32.584Z,99.90
2019-05-25T22:04:02.842Z,99.90
2019-05-25T22:06:34.130Z,99.90
2019-05-25T22:09:06.028Z,99.90
2019-05-25T22:11:34.516Z,99.90
2019-05-25T22:14:03.104Z,99.90
2019-05-25T22:16:31.653Z,99.90
2019-05-25T22:19:00.265Z,99.90
2019-05-25T22:21:28.603Z,99.90
2019-05-25T22:23:58.214Z,99.90
2019-05-25T22:26:27.131Z,99.90
2019-05-25T22:28:56.496Z,99.90
2019-05-25T22:31:25.223Z,99.90
2019-05-25T22:33:54.044Z,99.90
2019-05-25T22:36:22.575Z,99.90
2019-05-25T22:38:50.974Z,99.90
2019-05-25T22:41:20.295Z,99.90
2019-05-25T22:43:49.425Z,99.90
2019-05-25T22:46:24.548Z,99.90
2019-05-25T22:48:53.275Z,99.90
2019-05-25T22:51:22.159Z,99.90
2019-05-25T22:53:50.842Z,99.90
2019-05-25T22:56:19.190Z,99.90
2019-05-25T22:58:47.650Z,99.90
2019-05-25T23:01:15.789Z,99.90
2019-05-25T23:03:44.266Z,99.90
2019-05-25T23:06:12.764Z,99.90
2019-05-25T23:08:40.994Z,99.90
2019-05-25T23:11:09.226Z,99.90
2019-05-25T23:13:38.388Z,99.90
2019-05-25T23:16:08.619Z,99.90
2019-05-25T23:18:37.004Z,99.90
2019-05-25T23:21:05.551Z,99.90
2019-05-25T23:23:34.955Z,99.90
2019-05-25T23:26:03.290Z,99.90
2019-05-25T23:28:31.720Z,99.90
2019-05-25T23:31:00.188Z,99.90
2019-05-25T23:33:29.560Z,99.90
2019-05-25T23:35:58.173Z,99.90
2019-05-25T23:38:26.446Z,99.90
2019-05-25T23:40:54.934Z,99.90
2019-05-25T23:43:25.121Z,99.90
2019-05-25T23:45:53.312Z,99.90
2019-05-25T23:48:21.975Z,99.90
2019-05-25T23:50:50.486Z,99.90
2019-05-25T23:53:19.250Z,99.90
2019-05-25T23:55:47.244Z,99.90
2019-05-25T23:58:16.771Z,99.90
